createdAt,value
2023-08-11T00:01:18.977Z,15.38
2023-08-11T00:03:46.170Z,15.38
2023-08-11T00:06:15.179Z,15.33
2023-08-11T00:08:42.045Z,15.25
2023-08-11T00:11:09.112Z,15.24
2023-08-11T00:13:36.680Z,15.21
2023-08-11T00:16:04.775Z,15.16
2023-08-11T00:18:31.866Z,15.13
2023-08-11T00:21:00.344Z,15.09
2023-08-11T00:23:27.290Z,15.05
2023-08-11T00:25:54.025Z,15.05
2023-08-11T00:28:20.860Z,14.98
2023-08-11T00:30:47.752Z,14.93
2023-08-11T00:33:14.824Z,14.89
2023-08-11T00:35:44.494Z,14.86
2023-08-11T00:38:11.513Z,14.83
2023-08-11T00:40:38.482Z,14.80
2023-08-11T00:43:05.416Z,14.79
2023-08-11T00:45:32.390Z,14.73
2023-08-11T00:47:59.609Z,14.73
2023-08-11T00:50:27.100Z,14.70
2023-08-11T00:52:54.078Z,14.64
2023-08-11T00:55:23.042Z,14.61
2023-08-11T00:57:50.223Z,14.58
2023-08-11T01:00:17.605Z,14.55
2023-08-11T01:02:45.706Z,14.51
2023-08-11T01:05:15.494Z,14.46
2023-08-11T01:07:57.620Z,14.46
2023-08-11T01:10:35.000Z,14.42
2023-08-11T01:13:07.489Z,14.42
2023-08-11T01:15:40.745Z,14.37
2023-08-11T01:18:09.033Z,14.33
2023-08-11T01:20:38.338Z,14.31
2023-08-11T01:23:07.888Z,14.29
2023-08-11T01:25:36.011Z,14.28
2023-08-11T01:28:03.756Z,14.24
2023-08-11T01:30:31.566Z,14.25
2023-08-11T01:32:58.503Z,14.23
2023-08-11T01:35:34.258Z,14.21
2023-08-11T01:38:08.128Z,14.23
2023-08-11T01:40:35.322Z,14.20
2023-08-11T01:43:04.739Z,14.19
2023-08-11T01:45:31.568Z,14.15
2023-08-11T01:48:00.468Z,14.12
2023-08-11T01:50:29.120Z,14.12
2023-08-11T01:52:56.151Z,14.08
2023-08-11T01:55:26.139Z,14.07
2023-08-11T01:57:59.105Z,14.06
2023-08-11T02:00:27.958Z,14.01
2023-08-11T02:02:55.191Z,13.97
2023-08-11T02:05:25.994Z,13.98
2023-08-11T02:07:54.241Z,13.94
2023-08-11T02:10:21.383Z,13.90
2023-08-11T02:12:49.373Z,13.89
2023-08-11T02:15:16.485Z,13.86
2023-08-11T02:17:43.809Z,13.87
2023-08-11T02:20:31.523Z,13.83
2023-08-11T02:22:58.258Z,13.84
2023-08-11T02:25:27.091Z,13.83
2023-08-11T02:27:54.556Z,13.79
2023-08-11T02:30:23.468Z,13.79
2023-08-11T02:32:51.664Z,13.75
2023-08-11T02:35:19.055Z,13.71
2023-08-11T02:37:46.108Z,13.68
2023-08-11T02:40:13.173Z,13.68
2023-08-11T02:42:45.236Z,13.70
2023-08-11T02:45:12.730Z,13.70
2023-08-11T02:47:43.599Z,13.68
2023-08-11T02:50:11.047Z,13.65
2023-08-11T02:52:38.708Z,13.65
2023-08-11T02:55:06.712Z,13.60
2023-08-11T02:57:34.558Z,13.50
2023-08-11T03:00:01.952Z,13.48
2023-08-11T03:02:28.758Z,13.48
2023-08-11T03:04:55.604Z,13.49
2023-08-11T03:07:22.337Z,13.45
2023-08-11T03:09:49.061Z,13.44
2023-08-11T03:12:15.834Z,13.41
2023-08-11T03:14:43.061Z,13.40
2023-08-11T03:17:11.417Z,13.42
2023-08-11T03:19:38.211Z,13.39
2023-08-11T03:22:05.211Z,13.39
2023-08-11T03:24:32.035Z,13.37
2023-08-11T03:26:58.738Z,13.39
2023-08-11T03:29:25.386Z,13.40
2023-08-11T03:31:52.065Z,13.42
2023-08-11T03:34:18.892Z,13.39
2023-08-11T03:36:45.764Z,13.33
2023-08-11T03:39:12.784Z,13.32
2023-08-11T03:41:39.569Z,13.28
2023-08-11T03:44:06.616Z,13.30
2023-08-11T03:46:33.545Z,13.26
2023-08-11T03:49:00.304Z,13.26
2023-08-11T03:51:27.661Z,13.21
2023-08-11T03:53:54.568Z,13.17
2023-08-11T03:56:21.388Z,13.12
2023-08-11T03:58:48.099Z,13.12
2023-08-11T04:01:14.857Z,13.12
2023-08-11T04:03:41.837Z,13.12
2023-08-11T04:06:08.634Z,13.11
2023-08-11T04:08:35.362Z,13.09
2023-08-11T04:11:02.267Z,13.05
2023-08-11T04:13:29.457Z,13.07
2023-08-11T04:15:56.133Z,13.05
2023-08-11T04:18:22.993Z,13.07
2023-08-11T04:20:49.643Z,13.04
2023-08-11T04:23:16.306Z,13.03
2023-08-11T04:25:44.549Z,13.04
2023-08-11T04:28:11.655Z,13.05
2023-08-11T04:30:38.848Z,13.00
2023-08-11T04:33:06.826Z,13.05
2023-08-11T04:35:34.451Z,13.03
2023-08-11T04:38:01.322Z,13.04
2023-08-11T04:40:28.100Z,13.03
2023-08-11T04:42:54.805Z,13.05
2023-08-11T04:45:21.639Z,13.04
2023-08-11T04:47:48.728Z,13.06
2023-08-11T04:50:15.547Z,13.06
2023-08-11T04:52:43.906Z,13.06
2023-08-11T04:55:13.947Z,13.07
2023-08-11T04:57:40.940Z,13.08
2023-08-11T05:00:14.839Z,13.13
2023-08-11T05:02:43.304Z,13.13
2023-08-11T05:05:10.467Z,13.17
2023-08-11T05:07:38.466Z,13.18
2023-08-11T05:10:05.801Z,13.17
2023-08-11T05:12:32.755Z,13.18
2023-08-11T05:14:59.545Z,13.20
2023-08-11T05:17:26.200Z,13.24
2023-08-11T05:19:52.930Z,13.21
2023-08-11T05:22:19.627Z,13.23
2023-08-11T05:24:46.308Z,13.26
2023-08-11T05:27:13.578Z,13.27
2023-08-11T05:29:40.317Z,13.29
2023-08-11T05:32:07.197Z,13.33
2023-08-11T05:34:34.122Z,13.43
2023-08-11T05:37:00.953Z,13.48
2023-08-11T05:39:27.658Z,13.49
2023-08-11T05:41:54.607Z,13.52
2023-08-11T05:44:21.361Z,13.63
2023-08-11T05:46:48.311Z,13.67
2023-08-11T05:49:15.196Z,13.81
2023-08-11T05:51:41.924Z,14.02
2023-08-11T05:54:08.680Z,14.25
2023-08-11T05:56:35.346Z,14.52
2023-08-11T05:59:02.054Z,14.81
2023-08-11T06:01:28.807Z,15.09
2023-08-11T06:03:55.583Z,15.34
2023-08-11T06:06:22.363Z,15.57
2023-08-11T06:08:49.285Z,15.77
2023-08-11T06:11:15.963Z,16.05
2023-08-11T06:13:42.819Z,16.31
2023-08-11T06:16:09.790Z,16.63
2023-08-11T06:18:36.651Z,16.89
2023-08-11T06:21:05.401Z,17.17
2023-08-11T06:23:33.577Z,17.46
2023-08-11T06:26:00.392Z,17.75
2023-08-11T06:28:27.213Z,18.03
2023-08-11T06:30:54.858Z,18.31
2023-08-11T06:33:22.501Z,18.57
2023-08-11T06:35:49.254Z,18.88
2023-08-11T06:38:15.907Z,19.19
2023-08-11T06:40:42.665Z,19.51
2023-08-11T06:43:09.421Z,19.78
2023-08-11T06:45:36.191Z,20.07
2023-08-11T06:48:03.067Z,20.35
2023-08-11T06:50:29.917Z,20.60
2023-08-11T06:52:59.301Z,20.88
2023-08-11T06:55:27.156Z,21.12
2023-08-11T06:57:53.818Z,21.38
2023-08-11T07:00:20.515Z,21.63
2023-08-11T07:02:47.268Z,21.90
2023-08-11T07:05:14.124Z,22.18
2023-08-11T07:07:40.939Z,22.46
2023-08-11T07:10:08.009Z,22.62
2023-08-11T07:12:34.806Z,22.85
2023-08-11T07:15:02.022Z,23.06
2023-08-11T07:17:28.714Z,23.29
2023-08-11T07:19:55.565Z,23.44
2023-08-11T07:22:22.312Z,23.58
2023-08-11T07:24:49.011Z,23.80
2023-08-11T07:27:17.617Z,24.03
2023-08-11T07:29:46.108Z,24.18
2023-08-11T07:32:12.801Z,24.29
2023-08-11T07:34:39.703Z,24.41
2023-08-11T07:37:06.747Z,24.52
2023-08-11T07:39:34.121Z,24.64
2023-08-11T07:42:04.200Z,24.80
2023-08-11T07:44:32.590Z,25.00
2023-08-11T07:46:59.956Z,25.15
2023-08-11T07:49:26.815Z,25.21
2023-08-11T07:51:53.559Z,25.23
2023-08-11T07:54:20.686Z,25.30
2023-08-11T07:56:47.553Z,25.40
2023-08-11T07:59:14.303Z,25.55
2023-08-11T08:01:41.068Z,25.64
2023-08-11T08:04:07.804Z,25.70
2023-08-11T08:06:37.286Z,25.65
2023-08-11T08:09:04.222Z,25.70
2023-08-11T08:11:30.953Z,25.81
2023-08-11T08:13:57.630Z,25.88
2023-08-11T08:16:24.364Z,25.98
2023-08-11T08:18:51.191Z,26.05
2023-08-11T08:21:17.849Z,26.03
2023-08-11T08:23:44.627Z,25.95
2023-08-11T08:26:11.326Z,25.98
2023-08-11T08:28:38.489Z,25.94
2023-08-11T08:31:07.135Z,26.06
2023-08-11T08:33:34.600Z,26.11
2023-08-11T08:36:01.351Z,26.14
2023-08-11T08:38:28.034Z,26.14
2023-08-11T08:40:55.043Z,26.11
2023-08-11T08:43:22.498Z,26.01
2023-08-11T08:45:51.963Z,25.90
2023-08-11T08:48:25.874Z,25.86
2023-08-11T08:50:52.781Z,25.71
2023-08-11T08:53:20.292Z,25.75
2023-08-11T08:55:47.617Z,25.80
2023-08-11T08:58:15.969Z,25.80
2023-08-11T09:00:44.240Z,25.82
2023-08-11T09:03:12.213Z,25.78
2023-08-11T09:05:39.356Z,25.75
2023-08-11T09:08:06.824Z,25.77
2023-08-11T09:10:37.730Z,25.69
2023-08-11T09:13:04.946Z,25.52
2023-08-11T09:15:31.677Z,25.54
2023-08-11T09:18:00.092Z,25.57
2023-08-11T09:20:28.082Z,25.59
2023-08-11T09:22:54.842Z,25.63
2023-08-11T09:25:21.776Z,25.63
2023-08-11T09:27:52.225Z,25.57
2023-08-11T09:30:18.950Z,25.42
2023-08-11T09:32:51.972Z,25.43
2023-08-11T09:35:25.037Z,25.37
2023-08-11T09:37:56.245Z,25.38
2023-08-11T09:40:23.895Z,25.42
2023-08-11T09:42:52.421Z,25.38
2023-08-11T09:45:19.437Z,25.42
2023-08-11T09:47:47.192Z,25.42
2023-08-11T09:50:14.453Z,25.45
2023-08-11T09:52:42.927Z,25.41
2023-08-11T09:55:14.177Z,25.38
2023-08-11T09:57:45.169Z,25.38
2023-08-11T10:00:15.951Z,25.40
2023-08-11T10:03:07.283Z,25.43
2023-08-11T10:05:40.831Z,25.46
2023-08-11T10:08:11.091Z,25.45
2023-08-11T10:10:39.816Z,25.46
2023-08-11T10:13:09.169Z,25.48
2023-08-11T10:15:36.598Z,25.48
2023-08-11T10:18:04.220Z,25.45
2023-08-11T10:20:31.572Z,25.42
2023-08-11T10:22:59.002Z,25.39
2023-08-11T10:25:26.810Z,25.34
2023-08-11T10:27:55.339Z,25.26
2023-08-11T10:30:24.384Z,25.22
2023-08-11T10:33:10.379Z,25.26
2023-08-11T10:35:46.936Z,25.17
2023-08-11T10:38:14.029Z,25.17
2023-08-11T10:40:41.191Z,25.16
2023-08-11T10:43:07.989Z,25.16
2023-08-11T10:45:37.452Z,25.21
2023-08-11T10:48:09.561Z,25.18
2023-08-11T10:50:38.602Z,25.14
2023-08-11T10:53:20.865Z,25.13
2023-08-11T10:56:04.254Z,25.11
2023-08-11T10:58:31.903Z,25.08
2023-08-11T11:00:59.536Z,25.05
2023-08-11T11:03:27.063Z,25.00
2023-08-11T11:05:53.803Z,24.95
2023-08-11T11:08:20.533Z,24.96
2023-08-11T11:10:50.681Z,24.95
2023-08-11T11:13:18.443Z,24.92
2023-08-11T11:15:45.623Z,24.94
2023-08-11T11:18:12.748Z,24.95
2023-08-11T11:20:39.548Z,24.92
2023-08-11T11:23:06.778Z,24.91
2023-08-11T11:25:33.701Z,24.92
2023-08-11T11:28:00.441Z,24.92
2023-08-11T11:30:27.197Z,24.94
2023-08-11T11:32:54.068Z,24.96
2023-08-11T11:35:20.827Z,24.98
2023-08-11T11:37:47.675Z,24.98
2023-08-11T11:40:15.137Z,24.99
2023-08-11T11:42:42.789Z,25.05
2023-08-11T11:45:11.863Z,25.11
2023-08-11T11:47:38.893Z,25.12
2023-08-11T11:50:09.705Z,25.10
2023-08-11T11:52:37.967Z,25.11
2023-08-11T11:55:07.419Z,25.12
2023-08-11T11:57:35.360Z,25.12
2023-08-11T12:00:04.454Z,25.11
2023-08-11T12:02:31.572Z,25.13
2023-08-11T12:04:58.634Z,25.16
2023-08-11T12:07:30.406Z,25.18
2023-08-11T12:09:57.366Z,25.15
2023-08-11T12:12:30.258Z,25.11
2023-08-11T12:15:08.260Z,25.10
2023-08-11T12:17:36.693Z,25.12
2023-08-11T12:20:09.571Z,25.13
2023-08-11T12:22:36.480Z,25.15
2023-08-11T12:25:03.374Z,25.14
2023-08-11T12:27:30.137Z,25.12
2023-08-11T12:29:56.897Z,25.15
2023-08-11T12:32:23.694Z,25.19
2023-08-11T12:34:50.439Z,25.19
2023-08-11T12:37:17.359Z,25.14
2023-08-11T12:39:44.149Z,25.18
2023-08-11T12:42:11.627Z,25.17
2023-08-11T12:44:40.523Z,25.17
2023-08-11T12:47:07.768Z,25.12
2023-08-11T12:49:34.618Z,25.12
2023-08-11T12:52:01.482Z,25.11
2023-08-11T12:54:28.276Z,25.07
2023-08-11T12:56:55.108Z,25.03
2023-08-11T12:59:21.961Z,25.01
2023-08-11T13:01:48.818Z,25.00
2023-08-11T13:04:15.749Z,24.99
2023-08-11T13:06:42.477Z,25.02
2023-08-11T13:09:09.270Z,25.02
2023-08-11T13:11:36.060Z,25.06
2023-08-11T13:14:03.778Z,25.07
2023-08-11T13:16:30.836Z,25.06
2023-08-11T13:18:57.669Z,25.05
2023-08-11T13:21:24.391Z,25.06
2023-08-11T13:23:51.140Z,25.05
2023-08-11T13:26:17.878Z,25.10
2023-08-11T13:28:44.614Z,25.08
2023-08-11T13:31:11.415Z,25.14
2023-08-11T13:33:38.379Z,25.17
2023-08-11T13:36:06.148Z,25.22
2023-08-11T13:38:33.253Z,25.28
2023-08-11T13:41:00.074Z,25.29
2023-08-11T13:43:26.958Z,25.34
2023-08-11T13:45:54.716Z,25.36
2023-08-11T13:48:24.779Z,25.38
2023-08-11T13:50:54.705Z,25.41
2023-08-11T13:53:21.603Z,25.43
2023-08-11T13:55:48.339Z,25.44
2023-08-11T13:58:15.177Z,25.48
2023-08-11T14:00:41.972Z,25.49
2023-08-11T14:03:08.714Z,25.50
2023-08-11T14:05:35.862Z,25.55
2023-08-11T14:08:02.608Z,25.57
2023-08-11T14:10:29.298Z,25.59
2023-08-11T14:12:56.035Z,25.60
2023-08-11T14:15:22.794Z,25.58
2023-08-11T14:17:49.483Z,25.60
2023-08-11T14:20:16.625Z,25.63
2023-08-11T14:22:43.370Z,25.66
2023-08-11T14:25:10.082Z,25.69
2023-08-11T14:27:36.847Z,25.72
2023-08-11T14:30:03.807Z,25.75
2023-08-11T14:32:30.684Z,25.73
2023-08-11T14:34:57.501Z,25.76
2023-08-11T14:37:24.279Z,25.75
2023-08-11T14:39:51.055Z,25.76
2023-08-11T14:42:18.096Z,25.76
2023-08-11T14:44:44.918Z,25.76
2023-08-11T14:47:15.468Z,25.78
2023-08-11T14:49:43.715Z,25.79
2023-08-11T14:52:11.836Z,25.79
2023-08-11T14:54:39.042Z,25.78
2023-08-11T14:57:06.645Z,25.81
2023-08-11T14:59:33.328Z,25.81
2023-08-11T15:01:59.981Z,25.83
2023-08-11T15:04:28.026Z,25.82
2023-08-11T15:06:55.012Z,25.82
2023-08-11T15:09:21.827Z,25.81
2023-08-11T15:11:49.395Z,25.80
2023-08-11T15:14:17.090Z,25.78
2023-08-11T15:16:43.900Z,25.77
2023-08-11T15:19:10.649Z,25.77
2023-08-11T15:21:37.647Z,25.76
2023-08-11T15:24:04.601Z,25.71
2023-08-11T15:26:31.281Z,25.69
2023-08-11T15:28:58.349Z,25.67
2023-08-11T15:31:25.208Z,25.62
2023-08-11T15:33:51.940Z,25.56
2023-08-11T15:36:21.071Z,25.52
2023-08-11T15:38:48.721Z,25.48
2023-08-11T15:41:15.522Z,25.46
2023-08-11T15:43:42.420Z,25.42
2023-08-11T15:46:09.297Z,25.38
2023-08-11T15:48:36.057Z,25.31
2023-08-11T15:51:04.116Z,25.26
2023-08-11T15:53:31.006Z,25.25
2023-08-11T15:55:57.821Z,25.20
2023-08-11T15:58:24.537Z,25.18
2023-08-11T16:00:52.244Z,25.15
2023-08-11T16:03:21.558Z,25.11
2023-08-11T16:05:49.100Z,25.12
2023-08-11T16:08:15.830Z,25.11
2023-08-11T16:10:43.622Z,25.12
2023-08-11T16:13:11.295Z,25.10
2023-08-11T16:15:38.334Z,25.10
2023-08-11T16:18:11.346Z,25.12
2023-08-11T16:20:38.474Z,25.12
2023-08-11T16:23:05.820Z,25.10
2023-08-11T16:25:32.674Z,25.12
2023-08-11T16:27:59.974Z,25.12
2023-08-11T16:30:26.708Z,25.15
2023-08-11T16:32:56.058Z,25.14
2023-08-11T16:35:23.023Z,25.14
2023-08-11T16:37:49.716Z,25.12
2023-08-11T16:40:16.561Z,25.13
2023-08-11T16:42:43.310Z,25.16
2023-08-11T16:45:10.457Z,25.16
2023-08-11T16:47:37.192Z,25.14
2023-08-11T16:50:04.052Z,25.16
2023-08-11T16:52:30.745Z,25.18
2023-08-11T16:54:58.864Z,25.16
2023-08-11T16:57:25.605Z,25.17
2023-08-11T16:59:52.268Z,25.17
2023-08-11T17:02:19.005Z,25.16
2023-08-11T17:04:45.803Z,25.18
2023-08-11T17:07:12.517Z,25.15
2023-08-11T17:09:39.273Z,25.15
2023-08-11T17:12:06.456Z,25.11
2023-08-11T17:14:33.169Z,25.10
2023-08-11T17:16:59.931Z,25.09
2023-08-11T17:19:26.838Z,25.06
2023-08-11T17:21:54.133Z,25.03
2023-08-11T17:24:20.871Z,25.00
2023-08-11T17:26:47.582Z,24.96
2023-08-11T17:29:14.261Z,24.93
2023-08-11T17:31:40.976Z,24.90
2023-08-11T17:34:07.712Z,24.88
2023-08-11T17:36:34.382Z,24.85
2023-08-11T17:39:01.368Z,24.82
2023-08-11T17:41:28.162Z,24.78
2023-08-11T17:43:57.818Z,24.72
2023-08-11T17:46:24.762Z,24.68
2023-08-11T17:48:53.605Z,24.62
2023-08-11T17:51:21.892Z,24.56
2023-08-11T17:53:59.697Z,24.51
2023-08-11T17:56:36.748Z,24.47
2023-08-11T17:59:03.842Z,24.45
2023-08-11T18:01:31.150Z,24.39
2023-08-11T18:04:02.654Z,24.34
2023-08-11T18:06:32.005Z,24.26
2023-08-11T18:08:58.688Z,24.19
2023-08-11T18:11:25.477Z,24.14
2023-08-11T18:13:52.193Z,24.12
2023-08-11T18:16:18.990Z,24.08
2023-08-11T18:18:45.864Z,24.00
2023-08-11T18:21:20.598Z,23.92
2023-08-11T18:23:48.098Z,23.89
2023-08-11T18:26:15.869Z,23.79
2023-08-11T18:28:42.802Z,23.67
2023-08-11T18:31:09.700Z,23.58
2023-08-11T18:33:36.400Z,23.53
2023-08-11T18:36:03.135Z,23.43
2023-08-11T18:38:29.907Z,23.32
2023-08-11T18:40:56.612Z,23.25
2023-08-11T18:43:23.392Z,23.16
2023-08-11T18:45:50.141Z,23.06
2023-08-11T18:48:17.091Z,23.00
2023-08-11T18:50:43.817Z,22.92
2023-08-11T18:53:10.509Z,22.86
2023-08-11T18:55:37.254Z,22.84
2023-08-11T18:58:04.757Z,22.82
2023-08-11T19:00:31.556Z,22.79
2023-08-11T19:02:58.238Z,22.78
2023-08-11T19:05:25.215Z,22.76
2023-08-11T19:07:51.981Z,22.69
2023-08-11T19:10:18.706Z,22.65
2023-08-11T19:12:45.415Z,22.60
2023-08-11T19:15:12.148Z,22.54
2023-08-11T19:17:38.845Z,22.48
2023-08-11T19:20:06.136Z,22.43
2023-08-11T19:22:32.823Z,22.39
2023-08-11T19:24:59.525Z,22.32
2023-08-11T19:27:28.395Z,22.27
2023-08-11T19:29:55.677Z,22.19
2023-08-11T19:32:22.496Z,22.13
2023-08-11T19:34:49.248Z,22.06
2023-08-11T19:37:16.053Z,22.00
2023-08-11T19:39:42.802Z,21.98
2023-08-11T19:42:09.675Z,21.89
2023-08-11T19:44:38.368Z,21.80
2023-08-11T19:47:05.257Z,21.71
2023-08-11T19:49:31.960Z,21.64
2023-08-11T19:51:58.785Z,21.57
2023-08-11T19:54:25.528Z,21.50
2023-08-11T19:56:52.351Z,21.46
2023-08-11T19:59:19.281Z,21.39
2023-08-11T20:01:46.048Z,21.35
2023-08-11T20:04:13.637Z,21.28
2023-08-11T20:06:40.458Z,21.23
2023-08-11T20:09:09.356Z,21.16
2023-08-11T20:11:36.166Z,21.12
2023-08-11T20:14:02.964Z,21.18
2023-08-11T20:16:29.638Z,21.12
2023-08-11T20:18:56.392Z,21.09
2023-08-11T20:21:23.116Z,21.02
2023-08-11T20:23:49.767Z,21.00
2023-08-11T20:26:16.447Z,20.92
2023-08-11T20:28:47.206Z,20.85
2023-08-11T20:31:15.373Z,20.80
2023-08-11T20:33:42.223Z,20.74
2023-08-11T20:36:08.997Z,20.68
2023-08-11T20:38:39.220Z,20.64
2023-08-11T20:41:06.273Z,20.59
2023-08-11T20:43:32.972Z,20.52
2023-08-11T20:46:01.112Z,20.46
2023-08-11T20:48:28.133Z,20.42
2023-08-11T20:51:03.667Z,20.40
2023-08-11T20:53:30.658Z,20.31
2023-08-11T20:56:00.949Z,20.25
2023-08-11T20:58:28.834Z,20.22
2023-08-11T21:00:55.990Z,20.17
2023-08-11T21:03:22.696Z,20.12
2023-08-11T21:05:49.513Z,20.07
2023-08-11T21:08:18.386Z,19.99
2023-08-11T21:10:46.307Z,19.92
2023-08-11T21:13:14.098Z,19.90
2023-08-11T21:15:41.033Z,19.87
2023-08-11T21:18:09.744Z,19.83
2023-08-11T21:20:37.364Z,19.81
2023-08-11T21:23:05.364Z,19.76
2023-08-11T21:25:33.344Z,19.67
2023-08-11T21:28:00.281Z,19.71
2023-08-11T21:30:27.098Z,19.66
2023-08-11T21:32:53.981Z,19.65
2023-08-11T21:35:21.439Z,19.61
2023-08-11T21:37:49.395Z,19.68
2023-08-11T21:40:16.192Z,19.59
2023-08-11T21:42:43.338Z,19.60
2023-08-11T21:45:11.017Z,19.55
2023-08-11T21:47:37.678Z,19.46
2023-08-11T21:50:04.732Z,19.39
2023-08-11T21:52:31.469Z,19.33
2023-08-11T21:54:58.149Z,19.29
2023-08-11T21:57:24.883Z,19.28
2023-08-11T21:59:51.752Z,19.26
2023-08-11T22:02:18.628Z,19.20
2023-08-11T22:04:46.575Z,19.16
2023-08-11T22:07:14.112Z,19.11
2023-08-11T22:09:42.789Z,19.12
2023-08-11T22:12:12.190Z,19.06
2023-08-11T22:14:39.256Z,19.00
2023-08-11T22:17:05.930Z,18.97
2023-08-11T22:19:36.463Z,18.92
2023-08-11T22:22:08.580Z,18.84
2023-08-11T22:24:41.013Z,18.79
2023-08-11T22:27:10.845Z,18.78
2023-08-11T22:29:38.088Z,18.80
2023-08-11T22:32:05.024Z,18.79
2023-08-11T22:34:31.805Z,18.83
2023-08-11T22:36:58.490Z,18.81
2023-08-11T22:39:25.265Z,18.77
2023-08-11T22:41:51.933Z,18.70
2023-08-11T22:44:18.682Z,18.76
2023-08-11T22:46:45.323Z,18.68
2023-08-11T22:49:12.097Z,18.73
2023-08-11T22:51:38.814Z,18.69
2023-08-11T22:54:05.838Z,18.62
2023-08-11T22:56:32.585Z,18.58
2023-08-11T22:58:59.450Z,18.54
2023-08-11T23:01:26.203Z,18.50
2023-08-11T23:03:52.979Z,18.48
2023-08-11T23:06:20.650Z,18.44
2023-08-11T23:08:47.392Z,18.38
2023-08-11T23:11:14.152Z,18.38
2023-08-11T23:13:40.886Z,18.37
2023-08-11T23:16:07.737Z,18.40
2023-08-11T23:18:34.540Z,18.39
2023-08-11T23:21:01.242Z,18.41
2023-08-11T23:23:29.322Z,18.38
2023-08-11T23:25:56.329Z,18.36
2023-08-11T23:28:22.999Z,18.31
2023-08-11T23:30:49.629Z,18.27
2023-08-11T23:33:16.614Z,18.27
2023-08-11T23:35:43.327Z,18.23
2023-08-11T23:38:11.972Z,18.16
2023-08-11T23:40:39.938Z,18.14
2023-08-11T23:43:06.584Z,18.10
2023-08-11T23:45:33.404Z,18.07
2023-08-11T23:48:00.285Z,18.04
2023-08-11T23:50:27.769Z,18.03
2023-08-11T23:52:54.435Z,18.00
2023-08-11T23:55:21.373Z,17.90
2023-08-11T23:57:48.215Z,17.87
